createdAt,value
2023-05-04T00:03:10.566Z,61.09
2023-05-04T00:08:13.839Z,69.30
2023-05-04T00:13:17.229Z,72.81
2023-05-04T00:18:20.457Z,66.29
2023-05-04T00:23:23.575Z,55.87
2023-05-04T00:28:26.875Z,53.13
2023-05-04T00:33:30.102Z,53.19
2023-05-04T00:38:50.407Z,54.41
2023-05-04T00:43:53.603Z,56.05
2023-05-04T00:48:59.582Z,57.38
2023-05-04T00:54:03.216Z,58.90
2023-05-04T00:59:06.537Z,59.42
2023-05-04T01:04:10.679Z,60.31
2023-05-04T01:09:36.590Z,60.69
2023-05-04T01:14:41.408Z,70.23
2023-05-04T01:19:44.536Z,69.99
2023-05-04T01:24:48.346Z,63.74
2023-05-04T01:30:02.479Z,55.48
2023-05-04T01:35:06.747Z,52.52
2023-05-04T01:40:10.778Z,53.58
2023-05-04T01:45:14.193Z,55.58
2023-05-04T01:50:17.521Z,57.14
2023-05-04T01:55:20.724Z,57.73
2023-05-04T02:00:24.161Z,59.32
2023-05-04T02:05:27.533Z,69.05
2023-05-04T02:10:30.851Z,72.81
2023-05-04T02:15:34.066Z,66.83
2023-05-04T02:20:37.163Z,62.11
2023-05-04T02:25:43.693Z,54.02
2023-05-04T02:30:46.977Z,52.00
2023-05-04T02:35:50.108Z,52.34
2023-05-04T02:40:53.298Z,54.35
2023-05-04T02:45:56.532Z,56.67
2023-05-04T02:50:59.903Z,56.86
2023-05-04T02:56:03.217Z,59.07
2023-05-04T03:01:06.673Z,68.05
2023-05-04T03:06:09.856Z,71.57
2023-05-04T03:11:13.249Z,65.33
2023-05-04T03:16:17.514Z,61.05
2023-05-04T03:21:21.611Z,53.80
2023-05-04T03:26:24.922Z,52.34
2023-05-04T03:31:28.193Z,53.84
2023-05-04T03:36:31.447Z,54.93
2023-05-04T03:41:34.554Z,55.69
2023-05-04T03:46:37.861Z,57.67
2023-05-04T03:51:41.188Z,59.58
2023-05-04T03:56:44.381Z,59.86
2023-05-04T04:01:47.460Z,68.74
2023-05-04T04:06:50.493Z,72.24
2023-05-04T04:11:53.614Z,66.72
2023-05-04T04:16:56.806Z,62.50
2023-05-04T04:22:00.326Z,55.12
2023-05-04T04:27:03.539Z,53.04
2023-05-04T04:32:06.853Z,54.55
2023-05-04T04:37:10.049Z,55.42
2023-05-04T04:42:13.772Z,56.60
2023-05-04T04:47:18.223Z,58.18
2023-05-04T04:52:21.837Z,58.73
2023-05-04T04:57:25.046Z,59.24
2023-05-04T05:02:31.138Z,59.91
2023-05-04T05:07:34.439Z,60.31
2023-05-04T05:12:37.696Z,60.56
2023-05-04T05:17:41.100Z,60.30
2023-05-04T05:22:44.382Z,67.94
2023-05-04T05:27:47.676Z,68.99
2023-05-04T05:32:51.399Z,59.95
2023-05-04T05:37:55.521Z,49.78
2023-05-04T05:42:58.698Z,48.24
2023-05-04T05:48:01.754Z,48.66
2023-05-04T05:53:05.058Z,49.47
2023-05-04T05:58:08.975Z,49.77
2023-05-04T06:03:12.189Z,50.08
2023-05-04T06:08:15.492Z,51.45
2023-05-04T06:13:18.924Z,51.46
2023-05-04T06:18:22.414Z,51.38
2023-05-04T06:23:26.648Z,51.44
2023-05-04T06:28:29.871Z,51.58
2023-05-04T06:33:33.078Z,50.89
2023-05-04T06:38:38.040Z,50.99
2023-05-04T06:43:42.662Z,50.68
2023-05-04T06:48:45.871Z,51.12
2023-05-04T06:53:49.188Z,51.09
2023-05-04T06:58:52.506Z,50.94
2023-05-04T07:03:58.636Z,50.91
2023-05-04T07:09:01.988Z,50.62
2023-05-04T07:14:05.184Z,50.25
2023-05-04T07:19:08.543Z,49.87
2023-05-04T07:24:12.141Z,49.93
2023-05-04T07:29:15.973Z,48.58
2023-05-04T07:34:19.223Z,47.86
2023-05-04T07:39:23.794Z,47.02
2023-05-04T07:44:27.607Z,46.61
2023-05-04T07:49:30.736Z,46.12
2023-05-04T07:54:33.929Z,45.82
2023-05-04T07:59:37.038Z,45.69
2023-05-04T08:04:40.145Z,45.14
2023-05-04T08:09:43.558Z,45.04
2023-05-04T08:14:48.600Z,44.59
2023-05-04T08:19:51.744Z,43.72
2023-05-04T08:24:55.130Z,43.33
2023-05-04T08:29:58.950Z,42.85
2023-05-04T08:35:02.165Z,42.65
2023-05-04T08:40:06.597Z,42.09
2023-05-04T08:45:10.696Z,41.74
2023-05-04T08:50:14.591Z,41.83
2023-05-04T08:55:18.890Z,40.33
2023-05-04T09:00:23.397Z,39.58
2023-05-04T09:05:28.480Z,40.04
2023-05-04T09:10:31.689Z,39.00
2023-05-04T09:15:35.006Z,37.55
2023-05-04T09:20:49.681Z,37.35
2023-05-04T09:25:57.184Z,37.92
2023-05-04T09:31:01.846Z,38.14
2023-05-04T09:36:22.240Z,38.31
2023-05-04T09:41:34.666Z,39.09
2023-05-04T09:46:38.202Z,39.52
2023-05-04T09:51:43.234Z,38.87
2023-05-04T09:56:52.653Z,38.78
2023-05-04T10:01:57.337Z,39.28
2023-05-04T10:07:09.958Z,38.71
2023-05-04T10:12:13.442Z,37.99
2023-05-04T10:17:48.715Z,36.33
2023-05-04T10:23:08.225Z,36.37
2023-05-04T10:28:55.102Z,37.03
2023-05-04T10:33:58.364Z,37.72
2023-05-04T10:39:02.084Z,39.14
2023-05-04T10:44:06.950Z,39.15
2023-05-04T10:49:17.237Z,39.50
2023-05-04T10:54:20.624Z,39.66
2023-05-04T10:59:23.746Z,38.68
2023-05-04T11:04:27.464Z,38.32
2023-05-04T11:09:38.655Z,37.53
2023-05-04T11:14:43.500Z,36.43
2023-05-04T11:19:52.941Z,37.21
2023-05-04T11:24:56.667Z,36.21
2023-05-04T11:30:04.512Z,36.02
2023-05-04T11:35:18.915Z,35.83
2023-05-04T11:40:25.755Z,36.69
2023-05-04T11:45:35.017Z,36.07
2023-05-04T11:50:38.836Z,36.54
2023-05-04T11:55:42.654Z,36.29
2023-05-04T12:00:49.314Z,36.33
2023-05-04T12:05:56.141Z,36.61
2023-05-04T12:11:21.907Z,36.28
2023-05-04T12:16:25.032Z,35.36
2023-05-04T12:21:28.691Z,35.62
2023-05-04T12:26:31.933Z,33.83
2023-05-04T12:31:35.256Z,35.07
2023-05-04T12:36:38.439Z,34.02
2023-05-04T12:41:41.636Z,33.63
2023-05-04T12:46:44.749Z,34.91
2023-05-04T12:51:48.456Z,34.88
2023-05-04T12:56:51.716Z,35.62
2023-05-04T13:01:56.116Z,35.35
2023-05-04T13:06:59.340Z,35.59
2023-05-04T13:12:02.528Z,35.53
2023-05-04T13:17:05.862Z,35.34
2023-05-04T13:22:09.147Z,35.82
2023-05-04T13:27:12.466Z,35.47
2023-05-04T13:32:15.883Z,34.78
2023-05-04T13:37:18.976Z,33.90
2023-05-04T13:42:23.457Z,33.76
2023-05-04T13:47:26.865Z,34.25
2023-05-04T13:52:32.090Z,34.07
2023-05-04T13:57:35.505Z,34.20
2023-05-04T14:02:38.981Z,34.18
2023-05-04T14:07:42.330Z,34.37
2023-05-04T14:12:46.019Z,32.10
2023-05-04T14:17:50.440Z,32.31
2023-05-04T14:22:53.606Z,33.95
2023-05-04T14:27:56.799Z,33.73
2023-05-04T14:33:00.660Z,34.14
2023-05-04T14:38:03.932Z,34.26
2023-05-04T14:43:07.559Z,35.03
2023-05-04T14:48:10.793Z,34.94
2023-05-04T14:53:14.078Z,34.70
2023-05-04T14:58:18.034Z,34.40
2023-05-04T15:03:22.099Z,34.87
2023-05-04T15:08:25.544Z,34.59
2023-05-04T15:13:29.476Z,34.24
2023-05-04T15:18:32.573Z,34.63
2023-05-04T15:23:35.888Z,35.26
2023-05-04T15:28:39.111Z,35.37
2023-05-04T15:33:42.402Z,35.74
2023-05-04T15:38:46.150Z,35.88
2023-05-04T15:43:49.342Z,35.17
2023-05-04T15:48:52.679Z,36.42
2023-05-04T15:53:55.953Z,35.65
2023-05-04T15:58:59.165Z,34.30
2023-05-04T16:04:02.748Z,33.76
2023-05-04T16:09:07.213Z,33.51
2023-05-04T16:14:11.145Z,33.69
2023-05-04T16:19:14.351Z,34.02
2023-05-04T16:24:17.701Z,34.12
2023-05-04T16:29:20.976Z,34.71
2023-05-04T16:34:24.212Z,34.90
2023-05-04T16:39:31.927Z,35.36
2023-05-04T16:44:35.626Z,36.35
2023-05-04T16:49:38.728Z,37.13
2023-05-04T16:54:41.856Z,38.04
2023-05-04T16:59:45.455Z,38.42
2023-05-04T17:04:48.585Z,38.96
2023-05-04T17:09:51.787Z,39.58
2023-05-04T17:14:55.085Z,40.11
2023-05-04T17:19:58.400Z,40.44
2023-05-04T17:25:01.705Z,40.91
2023-05-04T17:30:06.885Z,41.24
2023-05-04T17:35:23.482Z,41.80
2023-05-04T17:40:29.473Z,41.84
2023-05-04T17:45:33.363Z,42.36
2023-05-04T17:50:38.244Z,42.69
2023-05-04T17:55:41.437Z,42.97
2023-05-04T18:00:44.762Z,43.00
2023-05-04T18:05:48.059Z,43.06
2023-05-04T18:10:51.366Z,43.32
2023-05-04T18:15:54.896Z,43.72
2023-05-04T18:21:00.010Z,44.06
2023-05-04T18:26:03.556Z,44.33
2023-05-04T18:31:07.064Z,44.55
2023-05-04T18:36:10.584Z,44.84
2023-05-04T18:41:14.238Z,45.07
2023-05-04T18:46:17.507Z,45.23
2023-05-04T18:51:20.828Z,45.56
2023-05-04T18:56:24.557Z,45.79
2023-05-04T19:01:28.413Z,46.10
2023-05-04T19:06:33.278Z,46.34
2023-05-04T19:11:36.434Z,46.43
2023-05-04T19:16:40.335Z,46.58
2023-05-04T19:21:44.285Z,46.93
2023-05-04T19:26:47.724Z,47.17
2023-05-04T19:31:51.526Z,47.71
2023-05-04T19:36:54.752Z,48.41
2023-05-04T19:41:58.037Z,49.24
2023-05-04T19:47:01.266Z,49.81
2023-05-04T19:52:07.218Z,49.91
2023-05-04T19:57:10.731Z,50.59
2023-05-04T20:02:14.422Z,50.58
2023-05-04T20:07:18.093Z,51.47
2023-05-04T20:12:21.816Z,51.89
2023-05-04T20:17:25.051Z,52.11
2023-05-04T20:22:28.414Z,52.38
2023-05-04T20:27:31.618Z,52.98
2023-05-04T20:32:34.967Z,53.39
2023-05-04T20:37:38.346Z,53.33
2023-05-04T20:42:41.457Z,53.54
2023-05-04T20:47:44.788Z,53.55
2023-05-04T20:52:48.087Z,53.28
2023-05-04T20:57:52.509Z,53.10
2023-05-04T21:02:56.151Z,53.45
2023-05-04T21:07:59.547Z,53.11
2023-05-04T21:13:02.772Z,53.07
2023-05-04T21:18:06.309Z,52.81
2023-05-04T21:23:09.585Z,52.62
2023-05-04T21:28:12.790Z,52.76
2023-05-04T21:33:16.099Z,52.80
2023-05-04T21:38:21.820Z,52.48
2023-05-04T21:43:25.694Z,52.38
2023-05-04T21:48:30.055Z,52.72
2023-05-04T21:53:33.948Z,52.80
2023-05-04T21:58:42.202Z,53.09
2023-05-04T22:03:46.225Z,53.08
2023-05-04T22:08:49.614Z,53.05
2023-05-04T22:13:52.929Z,53.36
2023-05-04T22:18:56.139Z,53.59
2023-05-04T22:24:00.105Z,53.77
2023-05-04T22:29:03.987Z,54.58
2023-05-04T22:34:07.505Z,54.63
2023-05-04T22:39:10.923Z,55.12
2023-05-04T22:44:14.038Z,55.69
2023-05-04T22:49:17.959Z,56.22
2023-05-04T22:54:21.161Z,56.37
2023-05-04T22:59:24.376Z,56.66
2023-05-04T23:04:28.117Z,57.40
2023-05-04T23:09:31.224Z,57.79
2023-05-04T23:14:34.500Z,58.73
2023-05-04T23:19:37.625Z,59.62
2023-05-04T23:24:41.459Z,63.16
2023-05-04T23:29:44.663Z,62.80
2023-05-04T23:34:47.963Z,57.78
2023-05-04T23:39:51.273Z,53.71
2023-05-04T23:44:56.016Z,55.39
2023-05-04T23:49:59.553Z,56.35
2023-05-04T23:55:03.855Z,56.91
